Excelsior Springs, Missouri
Current Conditions -  °F | °C
As of 5:55 PM on Thursday 18 Dec 2014 (Local Time) from KGPH Reporting Station
Overcast Overcast  
Wind Chill: 27°   Ceiling: 1000
Heat Index: 32°   Visibility: 10mi
Dew Point: 30°   Wind: 5mph
Humidity: 93%   Direction: 80°E
Pressure: 30.23"   Gusts: NA
Location:  39.34°N, 94.23°W
Report Text: KGPH 182355Z AUTO 08004KT 10SM OVC010 00/M01 A3023 RMK AO2
Loading
Personal Weather Stations






























Interactive Weather Map New forecast layout! Learn more

10-Day Weather Forecast

Advertisements
Track Severe Weather on mobile